ADDS METAR Data INFO
IDs: Format: Raw Decoded Include TAF

Data at: 2023 UTC 16 Dec 2017

KELO 162015Z AUTO 07004KT 7SM -SN OVC015 M09/M11 A2995 RMK AO2
KELO 161955Z AUTO 10005KT 7SM -SN OVC015 M09/M11 A2994 RMK AO2
KELO 161935Z AUTO 09004KT 7SM -SN OVC015 M09/M12 A2994 RMK AO2
KELO 161915Z AUTO 02003KT 5SM -SN OVC013 M12/M14 A2995 RMK AO2
KELO 161855Z AUTO 02003KT 1 3/4SM -SN OVC013 M12/M14 A2994 RMK AO2
KELO 161835Z AUTO 02004KT 10SM -SN BKN013 OVC019 M13/M15 A2994 RMK AO2
KELO 161815Z AUTO 02005KT 5SM -SN SCT013 OVC019 M13/M16 A2994 RMK AO2
KELO 161755Z AUTO 02003KT 3SM -SN BKN011 OVC019 M14/M16 A2994 RMK AO2
KELO 161735Z AUTO 02004KT 4SM -SN OVC011 M14/M17 A2994 RMK AO2
KELO 161715Z AUTO 00000KT 7SM -SN OVC009 M14/M16 A2994 RMK AO2
KELO 161655Z AUTO 00000KT 10SM -SN OVC007 M14/M17 A2995 RMK AO2
KELO 161635Z AUTO 02003KT 10SM OVC007 M16/M18 A2995 RMK AO2
KELO 161615Z AUTO 03003KT 10SM OVC007 M16/M18 A2995 RMK AO2
KELO 161555Z AUTO 03003KT 10SM OVC007 M16/M18 A2993 RMK AO2
KELO 161535Z AUTO 00000KT 10SM OVC007 M16/M18 A2991 RMK AO2
KELO 161515Z AUTO 04003KT 10SM OVC009 M16/M18 A2990 RMK AO2
KELO 161455Z AUTO 03003KT 7SM OVC009 M16/M18 A2989 RMK AO2
KELO 161435Z AUTO 00000KT 10SM OVC009 M16/M18 A2988 RMK AO2
KELO 161415Z AUTO 00000KT 10SM OVC009 M17/M19 A2988 RMK AO2
KELO 161355Z AUTO 00000KT 10SM OVC009 M17/M19 A2986 RMK AO2
KELO 161335Z AUTO 05003KT 10SM OVC009 M17/M18 A2985 RMK AO2
KELO 161315Z AUTO 00000KT 10SM OVC007 M16/M18 A2985 RMK AO2
KELO 161255Z AUTO 00000KT 10SM OVC007 M17/M19 A2984 RMK AO2
KELO 161235Z AUTO 05004KT 10SM OVC009 M17/M19 A2983 RMK AO2
KELO 161215Z AUTO 05005KT 10SM OVC011 M17/M19 A2982 RMK AO2
KELO 161155Z AUTO 00000KT 10SM OVC011 M18/M20 A2984 RMK AO2
KELO 161135Z AUTO 00000KT 10SM OVC011 M18/M20 A2983 RMK AO2
KELO 161115Z AUTO 04003KT 10SM OVC011 M18/M20 A2981 RMK AO2
KELO 161055Z AUTO 03003KT 10SM OVC011 M18/M21 A2981 RMK AO2
KELO 161035Z AUTO 05003KT 10SM BKN011 OVC022 M18/M21 A2981 RMK AO2
KELO 161015Z AUTO 00000KT 10SM BKN022 OVC036 M18/M21 A2981 RMK AO2
KELO 160955Z AUTO 04003KT 10SM OVC020 M18/M21 A2981 RMK AO2
KELO 160935Z AUTO 03004KT 10SM BKN021 OVC036 M18/M20 A2982 RMK AO2
KELO 160915Z AUTO 00000KT 10SM OVC034 M18/M20 A2981 RMK AO2
KELO 160855Z AUTO 00000KT 10SM OVC034 M18/M20 A2980 RMK AO2
KELO 160835Z AUTO 00000KT 10SM SCT009 BKN034 M18/M20 A2979 RMK AO2
KELO 160815Z AUTO 00000KT 10SM SCT009 OVC034 M18/M20 A2978 RMK AO2
KELO 160755Z AUTO 00000KT 10SM OVC034 M18/M20 A2977 RMK AO2
KELO 160735Z AUTO 05003KT 10SM OVC036 M18/M20 A2977 RMK AO2
KELO 160715Z AUTO 06003KT 10SM OVC038 M18/M20 A2977 RMK AO2
KELO 160655Z AUTO 00000KT 10SM OVC038 M19/M21 A2977 RMK AO2
KELO 160635Z AUTO 00000KT 10SM SCT038 M19/M21 A2976 RMK AO2
KELO 160615Z AUTO 06003KT 10SM CLR M18/M20 A2976 RMK AO2
KELO 160555Z AUTO 06003KT 10SM CLR M18/M20 A2976 RMK AO2
KELO 160535Z AUTO 08003KT 10SM CLR M17/M19 A2975 RMK AO2
KELO 160515Z AUTO 00000KT 10SM CLR M19/M21 A2975 RMK AO2
KELO 160455Z AUTO 00000KT 10SM CLR M19/M22 A2975 RMK AO2
KELO 160435Z AUTO 00000KT 10SM CLR M19/M22 A2975 RMK AO2
KELO 160415Z AUTO 00000KT 10SM CLR M20/M22 A2975 RMK AO2
KELO 160355Z AUTO 00000KT 10SM CLR M20/M22 A2975 RMK AO2
KELO 160335Z AUTO 00000KT 10SM CLR M20/M22 A2975 RMK AO2
KELO 160315Z AUTO 00000KT 10SM CLR M20/M22 A2975 RMK AO2
KELO 160255Z AUTO 00000KT 10SM CLR M19/M22 A2975 RMK AO2
KELO 160235Z AUTO 00000KT 10SM CLR M19/M22 A2974 RMK AO2
KELO 160215Z AUTO 00000KT 10SM CLR M19/M22 A2975 RMK AO2
KELO 160155Z AUTO 00000KT 10SM CLR M19/M22 A2974 RMK AO2
KELO 160135Z AUTO 00000KT 10SM CLR M19/M21 A2974 RMK AO2
KELO 160115Z AUTO 00000KT 10SM CLR M19/M21 A2974 RMK AO2
KELO 160055Z AUTO 00000KT 10SM CLR M19/M21 A2974 RMK AO2
KELO 160035Z AUTO 00000KT 10SM SCT075 M19/M21 A2975 RMK AO2
KELO 160015Z AUTO 00000KT 10SM SCT075 M19/M21 A2974 RMK AO2
KELO 152355Z AUTO 00000KT 10SM BKN075 M19/M21 A2974 RMK AO2
KELO 152335Z AUTO 00000KT 10SM BKN075 M18/M20 A2973 RMK AO2
KELO 152315Z AUTO 00000KT 10SM SCT075 M18/M20 A2973 RMK AO2
KELO 152255Z AUTO 00000KT 10SM SCT075 M17/M19 A2973 RMK AO2
KELO 152235Z AUTO 00000KT 10SM CLR M16/M18 A2973 RMK AO2
KELO 152215Z AUTO 00000KT 10SM CLR M14/M18 A2973 RMK AO2
KELO 152155Z AUTO 00000KT 10SM SCT085 M13/M17 A2973 RMK AO2
KELO 152135Z AUTO 00000KT 10SM CLR M13/M18 A2974 RMK AO2
KELO 152115Z AUTO 27003KT 10SM CLR M13/M18 A2973 RMK AO2
KELO 152055Z AUTO 00000KT 10SM SCT085 M13/M17 A2974 RMK AO2
KELO 152035Z AUTO 00000KT 10SM CLR M13/M18 A2974 RMK AO2
KELO 152015Z AUTO 24004KT 10SM CLR M13/M18 A2974 RMK AO2
KELO 151955Z AUTO 30005KT 10SM SCT021 M13/M17 A2974 RMK AO2
KELO 151935Z AUTO 27005KT 10SM OVC021 M12/M17 A2974 RMK AO2
KELO 151915Z AUTO 28003KT 10SM OVC021 M13/M17 A2975 RMK AO2
KELO 151855Z AUTO 28005KT 10SM OVC021 M13/M17 A2975 RMK AO2
KELO 151835Z AUTO 26005KT 10SM OVC021 M13/M17 A2976 RMK AO2
KELO 151815Z AUTO 25007KT 10SM BKN021 M13/M17 A2977 RMK AO2
KELO 151755Z AUTO 28006KT 10SM BKN019 M13/M17 A2977 RMK AO2
KELO 151735Z AUTO 29005KT 10SM BKN019 M13/M18 A2978 RMK AO2
KELO 151715Z AUTO 25006KT 10SM OVC019 M14/M17 A2979 RMK AO2
KELO 151655Z AUTO 28007KT 10SM OVC019 M14/M17 A2979 RMK AO2
KELO 151636Z AUTO 33003KT 7SM OVC019 M14/M17 A2979 RMK AO2
KELO 151615Z AUTO 31005KT 10SM OVC019 M14/M17 A2979 RMK AO2
KELO 151555Z AUTO 00000KT 10SM OVC019 M14/M17 A2979 RMK AO2
KELO 151536Z AUTO 32004KT 10SM OVC019 M14/M17 A2980 RMK AO2
KELO 151515Z AUTO 36004KT 10SM OVC019 M14/M17 A2979 RMK AO2
KELO 151455Z AUTO 34003KT 10SM OVC021 M14/M17 A2979 RMK AO2
KELO 151435Z AUTO 33004KT 10SM OVC021 M14/M17 A2979 RMK AO2
KELO 151415Z AUTO 32003KT 10SM OVC021 M14/M17 A2980 RMK AO2
KELO 151355Z AUTO 31006KT 10SM OVC021 M14/M17 A2980 RMK AO2
KELO 151335Z AUTO 31005KT 7SM -SN OVC021 M14/M17 A2979 RMK AO2
KELO 151315Z AUTO 32004KT 7SM -SN OVC021 M14/M17 A2980 RMK AO2
KELO 151255Z AUTO 32005KT 7SM -SN OVC023 M14/M17 A2980 RMK AO2
KELO 151235Z AUTO 31007KT 7SM -SN BKN023 OVC032 M14/M16 A2980 RMK AO2
KELO 151215Z AUTO 30003KT 3SM -SN OVC032 M14/M16 A2980 RMK AO2
KELO 151155Z AUTO 30005KT 2 1/2SM -SN BKN018 BKN026 OVC030 M13/M16 A2980 RMK AO2
KELO 151135Z AUTO 30005KT 2 1/2SM -SN OVC020 M13/M16 A2981 RMK AO2
KELO 151115Z AUTO 30004KT 5SM -SN OVC022 M13/M16 A2981 RMK AO2
KELO 151055Z AUTO 30008KT 10SM -SN BKN023 OVC028 M13/M16 A2981 RMK AO2
KELO 151035Z AUTO 31004KT 7SM -SN SCT021 OVC030 M13/M16 A2981 RMK AO2
KELO 151015Z AUTO 31005KT 7SM -SN OVC019 M13/M16 A2981 RMK AO2
KELO 150955Z AUTO 31007KT 270V340 5SM -SN OVC017 M13/M16 A2982 RMK AO2
KELO 150935Z AUTO 30007KT 280V340 7SM -SN OVC017 M13/M15 A2982 RMK AO2
KELO 150915Z AUTO 30009KT 7SM -SN OVC017 M13/M15 A2982 RMK AO2
KELO 150855Z AUTO 31005KT 5SM -SN BKN017 OVC033 M13/M15 A2982 RMK AO2
KELO 150835Z AUTO 29005KT 7SM -SN SCT017 OVC035 M13/M15 A2982 RMK AO2